Time,TemperatureF,DewpointF,PressureIn,WindDirection,WindDirectionDegrees,WindSpeedMPH,WindSpeedGustMPH,Humidity,HourlyPrecipIn,Conditions,Clouds,dailyrainin,SoftwareType,DateUTC
2013-06-30 00:00:00,80.2,68.3,29.77,North,0,0.0,0.0,67,0.00,CLR,FEW,0.20,WeatherDisplay:10.37,2013-06-30 04:00:00,
2013-06-30 00:01:00,80.2,68.3,29.77,North,0,0.0,0.0,67,0.00,RA,FEW,0.00,WeatherDisplay:10.37,2013-06-30 04:01:00,
2013-06-30 00:02:00,80.2,68.3,29.77,North,0,0.0,0.0,67,0.00,RA,FEW,0.00,WeatherDisplay:10.37,2013-06-30 04:02:00,
2013-06-30 00:04:00,80.1,68.5,29.77,North,0,0.0,0.0,68,0.00,RA,FEW,0.00,WeatherDisplay:10.37,2013-06-30 04:04:00,
2013-06-30 00:09:00,80.1,69.0,29.77,North,0,0.0,0.0,69,0.00,RA,FEW,0.00,WeatherDisplay:10.37,2013-06-30 04:09:00,
2013-06-30 00:11:00,80.1,69.0,29.77,North,0,0.0,0.0,69,0.00,CLR,FEW,0.00,WeatherDisplay:10.37,2013-06-30 04:11:00,
2013-06-30 00:16:00,80.1,69.0,29.77,North,0,0.0,0.0,69,0.00,CLR,FEW,0.00,WeatherDisplay:10.37,2013-06-30 04:16:00,
2013-06-30 00:21:00,80.1,69.4,29.77,North,0,0.0,0.0,70,0.00,CLR,FEW,0.00,WeatherDisplay:10.37,2013-06-30 04:21:00,
2013-06-30 00:26:00,79.9,69.2,29.77,North,0,0.0,0.0,70,0.00,CLR,FEW,0.00,WeatherDisplay:10.37,2013-06-30 04:26:00,
2013-06-30 00:31:00,80.1,69.4,29.77,North,0,0.0,0.0,70,0.00,CLR,FEW,0.00,WeatherDisplay:10.37,2013-06-30 04:31:00,
2013-06-30 00:36:00,80.1,69.0,29.77,North,0,0.0,0.0,69,0.00,CLR,FEW,0.00,WeatherDisplay:10.37,2013-06-30 04:36:00,
2013-06-30 00:41:00,80.1,69.0,29.77,North,0,0.0,0.0,69,0.00,CLR,FEW,0.00,WeatherDisplay:10.37,2013-06-30 04:41:00,
2013-06-30 00:46:00,80.1,69.4,29.77,North,0,0.0,0.0,70,0.00,CLR,FEW,0.00,WeatherDisplay:10.37,2013-06-30 04:46:00,
2013-06-30 00:51:00,80.1,69.8,29.77,North,0,0.0,0.0,71,0.00,CLR,FEW,0.00,WeatherDisplay:10.37,2013-06-30 04:51:00,
2013-06-30 00:56:00,80.1,69.4,29.77,North,0,0.0,0.0,70,0.00,CLR,FEW,0.00,WeatherDisplay:10.37,2013-06-30 04:56:00,
2013-06-30 01:01:00,80.1,69.8,29.77,North,0,0.0,0.0,71,0.00,CLR,FEW,0.00,WeatherDisplay:10.37,2013-06-30 05:01:00,
2013-06-30 01:06:00,80.1,70.2,29.77,North,0,0.0,0.0,72,0.00,CLR,FEW,0.00,WeatherDisplay:10.37,2013-06-30 05:06:00,
2013-06-30 01:12:00,80.1,71.0,29.77,North,0,0.0,0.0,74,0.00,CLR,FEW,0.00,WeatherDisplay:10.37,2013-06-30 05:12:00,
2013-06-30 01:17:00,80.2,71.6,29.77,North,0,0.0,0.0,75,0.00,CLR,FEW,0.00,WeatherDisplay:10.37,2013-06-30 05:17:00,
2013-06-30 01:22:00,80.1,71.4,29.77,North,0,0.0,0.0,75,0.00,CLR,FEW,0.00,WeatherDisplay:10.37,2013-06-30 05:22:00,
2013-06-30 01:27:00,80.1,71.8,29.77,North,0,0.0,0.0,76,0.00,CLR,FEW,0.00,WeatherDisplay:10.37,2013-06-30 05:27:00,
2013-06-30 01:32:00,79.9,71.6,29.77,North,0,0.0,0.0,76,0.00,CLR,FEW,0.00,WeatherDisplay:10.37,2013-06-30 05:32:00,
2013-06-30 01:37:00,79.9,71.2,29.77,North,0,0.0,0.0,75,0.00,CLR,FEW,0.00,WeatherDisplay:10.37,2013-06-30 05:37:00,
2013-06-30 01:42:00,79.9,70.8,29.77,North,0,0.0,0.0,74,0.00,CLR,FEW,0.00,WeatherDisplay:10.37,2013-06-30 05:42:00,
2013-06-30 01:47:00,79.9,70.8,29.77,North,0,0.0,0.0,74,0.00,CLR,FEW,0.00,WeatherDisplay:10.37,2013-06-30 05:47:00,
2013-06-30 01:52:00,79.9,70.8,29.77,North,0,0.0,0.0,74,0.00,CLR,FEW,0.00,WeatherDisplay:10.37,2013-06-30 05:52:00,
2013-06-30 01:57:00,79.9,70.8,29.77,North,0,0.0,0.0,74,0.00,CLR,FEW,0.00,WeatherDisplay:10.37,2013-06-30 05:57:00,
2013-06-30 02:02:00,80.1,71.0,29.77,North,0,0.0,0.0,74,0.00,CLR,FEW,0.00,WeatherDisplay:10.37,2013-06-30 06:02:00,
2013-06-30 02:07:00,79.9,70.4,29.77,North,0,0.0,0.0,73,0.00,CLR,FEW,0.00,WeatherDisplay:10.37,2013-06-30 06:07:00,
2013-06-30 02:12:00,78.4,63.4,29.77,North,0,0.0,0.0,60,0.04,RA,FEW,0.04,WeatherDisplay:10.37,2013-06-30 06:12:00,
2013-06-30 02:17:00,77.4,63.8,29.77,North,0,0.0,0.0,63,0.04,RA,FEW,0.04,WeatherDisplay:10.37,2013-06-30 06:17:00,
2013-06-30 02:22:00,77.0,64.3,29.77,North,0,0.0,0.0,65,0.04,CLR,FEW,0.04,WeatherDisplay:10.37,2013-06-30 06:22:00,
2013-06-30 02:27:00,76.8,66.3,29.77,North,0,0.0,0.0,70,0.04,CLR,FEW,0.04,WeatherDisplay:10.37,2013-06-30 06:27:00,
2013-06-30 02:32:00,76.6,67.3,29.74,North,0,0.0,0.0,73,0.04,CLR,FEW,0.04,WeatherDisplay:10.37,2013-06-30 06:32:00,
2013-06-30 02:37:00,76.8,69.1,29.74,North,0,0.0,0.0,77,0.04,CLR,FEW,0.04,WeatherDisplay:10.37,2013-06-30 06:37:00,
2013-06-30 02:42:00,77.2,70.2,29.74,North,0,0.0,0.0,79,0.04,CLR,FEW,0.04,WeatherDisplay:10.37,2013-06-30 06:42:00,
2013-06-30 02:47:00,77.5,71.2,29.74,North,0,0.0,0.0,81,0.04,CLR,FEW,0.04,WeatherDisplay:10.37,2013-06-30 06:47:00,
2013-06-30 02:52:00,77.5,70.9,29.74,North,0,0.0,0.0,80,0.04,CLR,FEW,0.04,WeatherDisplay:10.37,2013-06-30 06:52:00,
2013-06-30 02:57:00,77.5,70.5,29.74,North,0,0.0,0.0,79,0.04,CLR,FEW,0.04,WeatherDisplay:10.37,2013-06-30 06:57:00,
2013-06-30 03:02:00,77.5,70.5,29.74,North,0,0.0,0.0,79,0.04,CLR,FEW,0.04,WeatherDisplay:10.37,2013-06-30 07:02:00,
2013-06-30 03:07:00,77.4,70.3,29.74,North,0,0.0,0.0,79,0.04,CLR,FEW,0.04,WeatherDisplay:10.37,2013-06-30 07:07:00,
2013-06-30 03:12:00,77.5,71.2,29.74,North,0,0.0,0.0,81,0.00,CLR,FEW,0.04,WeatherDisplay:10.37,2013-06-30 07:12:00,
2013-06-30 03:17:00,77.5,72.0,29.74,North,0,0.0,0.0,83,0.00,CLR,FEW,0.04,WeatherDisplay:10.37,2013-06-30 07:17:00,
2013-06-30 03:22:00,77.5,72.3,29.74,North,0,0.0,0.0,84,0.04,RA,FEW,0.08,WeatherDisplay:10.37,2013-06-30 07:22:00,
2013-06-30 03:27:00,77.5,72.3,29.74,North,0,0.0,0.0,84,0.04,RA,FEW,0.08,WeatherDisplay:10.37,2013-06-30 07:27:00,
2013-06-30 03:32:00,77.5,73.0,29.74,North,0,0.0,0.0,86,0.04,,FEW,0.08,WeatherDisplay:10.37,2013-06-30 07:32:00,
2013-06-30 03:37:00,77.5,73.4,29.74,North,0,0.0,0.0,87,0.08,RA,FEW,0.12,WeatherDisplay:10.37,2013-06-30 07:37:00,
2013-06-30 03:42:00,77.5,73.4,29.74,North,0,0.0,0.0,87,0.08,RA,FEW,0.12,WeatherDisplay:10.37,2013-06-30 07:42:00,
2013-06-30 03:47:00,77.4,73.5,29.74,North,0,0.0,0.0,88,0.08,CLR,FEW,0.12,WeatherDisplay:10.37,2013-06-30 07:47:00,
2013-06-30 03:52:00,77.4,73.9,29.74,North,0,0.0,0.0,89,0.08,CLR,FEW,0.12,WeatherDisplay:10.37,2013-06-30 07:52:00,
2013-06-30 03:57:00,77.5,74.4,29.74,North,0,0.0,0.0,90,0.08,CLR,FEW,0.12,WeatherDisplay:10.37,2013-06-30 07:57:00,
2013-06-30 04:02:00,77.5,74.4,29.74,North,0,0.0,0.0,90,0.08,CLR,FEW,0.12,WeatherDisplay:10.37,2013-06-30 08:02:00,
2013-06-30 04:07:00,77.5,74.4,29.74,North,0,0.0,0.0,90,0.08,CLR,FEW,0.12,WeatherDisplay:10.37,2013-06-30 08:07:00,
2013-06-30 04:12:00,77.5,74.4,29.74,North,0,0.0,0.0,90,0.08,CLR,FEW,0.12,WeatherDisplay:10.37,2013-06-30 08:12:00,
2013-06-30 04:17:00,77.5,74.4,29.74,North,0,0.0,0.0,90,0.08,CLR,FEW,0.12,WeatherDisplay:10.37,2013-06-30 08:17:00,
2013-06-30 04:22:00,77.7,74.9,29.74,North,0,0.0,0.0,91,0.04,CLR,FEW,0.12,WeatherDisplay:10.37,2013-06-30 08:22:00,
2013-06-30 04:27:00,77.5,74.7,29.74,North,0,0.0,0.0,91,0.04,CLR,FEW,0.12,WeatherDisplay:10.37,2013-06-30 08:27:00,
2013-06-30 04:32:00,77.5,74.7,29.74,North,0,0.0,0.0,91,0.04,CLR,FEW,0.12,WeatherDisplay:10.37,2013-06-30 08:32:00,
2013-06-30 04:37:00,77.5,74.7,29.74,North,0,0.0,0.0,91,0.00,CLR,FEW,0.12,WeatherDisplay:10.37,2013-06-30 08:37:00,
2013-06-30 04:42:00,77.5,74.7,29.74,North,0,0.0,0.0,91,0.00,CLR,FEW,0.12,WeatherDisplay:10.37,2013-06-30 08:42:00,
2013-06-30 04:47:00,77.7,74.9,29.74,North,0,0.0,0.0,91,0.00,CLR,FEW,0.12,WeatherDisplay:10.37,2013-06-30 08:47:00,
2013-06-30 04:52:00,77.5,74.7,29.74,North,0,0.0,0.0,91,0.00,CLR,FEW,0.12,WeatherDisplay:10.37,2013-06-30 08:52:00,
2013-06-30 04:57:00,77.5,74.7,29.74,North,0,0.0,0.0,91,0.00,CLR,FEW,0.12,WeatherDisplay:10.37,2013-06-30 08:57:00,
2013-06-30 05:02:00,77.7,74.9,29.74,North,0,0.0,0.0,91,0.00,CLR,FEW,0.12,WeatherDisplay:10.37,2013-06-30 09:02:00,
2013-06-30 05:07:00,77.7,74.9,29.74,North,0,0.0,0.0,91,0.00,CLR,FEW,0.12,WeatherDisplay:10.37,2013-06-30 09:07:00,
2013-06-30 05:12:00,77.5,74.4,29.74,North,0,0.0,0.0,90,0.00,CLR,FEW,0.12,WeatherDisplay:10.37,2013-06-30 09:12:00,
2013-06-30 05:17:00,77.5,74.4,29.77,North,0,0.0,0.0,90,0.00,CLR,FEW,0.12,WeatherDisplay:10.37,2013-06-30 09:17:00,
2013-06-30 05:22:00,77.5,74.4,29.77,North,0,0.0,0.0,90,0.00,CLR,FEW,0.12,WeatherDisplay:10.37,2013-06-30 09:22:00,
2013-06-30 05:27:00,77.5,74.4,29.77,North,0,0.0,0.0,90,0.00,CLR,FEW,0.12,WeatherDisplay:10.37,2013-06-30 09:27:00,
2013-06-30 05:32:00,77.4,74.2,29.77,North,0,0.0,0.0,90,0.00,CLR,FEW,0.12,WeatherDisplay:10.37,2013-06-30 09:32:00,
2013-06-30 05:37:00,77.4,74.2,29.77,North,0,0.0,0.0,90,0.00,CLR,FEW,0.12,WeatherDisplay:10.37,2013-06-30 09:37:00,
2013-06-30 05:42:00,77.4,74.2,29.77,North,0,0.0,0.0,90,0.00,CLR,FEW,0.12,WeatherDisplay:10.37,2013-06-30 09:42:00,
2013-06-30 05:47:00,77.4,74.2,29.77,North,0,0.0,0.0,90,0.00,CLR,FEW,0.12,WeatherDisplay:10.37,2013-06-30 09:47:00,
2013-06-30 05:52:00,76.8,73.0,29.77,North,0,0.0,0.0,88,0.04,RA,FEW,0.16,WeatherDisplay:10.37,2013-06-30 09:52:00,
2013-06-30 05:57:00,76.3,71.8,29.77,North,0,0.0,0.0,86,0.12,RA,FEW,0.24,WeatherDisplay:10.37,2013-06-30 09:57:00,
2013-06-30 06:02:00,76.3,72.1,29.77,North,0,0.0,0.0,87,0.12,RA,FEW,0.24,WeatherDisplay:10.37,2013-06-30 10:02:00,
2013-06-30 06:07:00,76.5,72.6,29.77,North,0,0.0,0.0,88,0.12,CLR,FEW,0.24,WeatherDisplay:10.37,2013-06-30 10:07:00,
2013-06-30 06:12:00,76.5,73.0,29.77,North,0,0.0,0.0,89,0.12,CLR,FEW,0.24,WeatherDisplay:10.37,2013-06-30 10:12:00,
2013-06-30 06:17:00,76.6,73.2,29.77,North,0,0.0,0.0,89,0.12,CLR,FEW,0.24,WeatherDisplay:10.37,2013-06-30 10:17:00,
2013-06-30 06:22:00,76.6,73.2,29.77,North,0,0.0,0.0,89,0.12,CLR,FEW,0.24,WeatherDisplay:10.37,2013-06-30 10:22:00,
2013-06-30 06:27:00,77.0,73.5,29.77,North,0,0.0,0.0,89,0.12,CLR,FEW,0.24,WeatherDisplay:10.37,2013-06-30 10:27:00,
2013-06-30 06:32:00,77.2,73.7,29.77,North,0,0.0,0.0,89,0.12,CLR,FEW,0.24,WeatherDisplay:10.37,2013-06-30 10:32:00,
2013-06-30 06:37:00,77.5,74.0,29.77,North,0,0.0,0.0,89,0.12,CLR,FEW,0.24,WeatherDisplay:10.37,2013-06-30 10:37:00,
2013-06-30 06:42:00,77.5,73.7,29.77,North,0,0.0,0.0,88,0.12,CLR,FEW,0.24,WeatherDisplay:10.37,2013-06-30 10:42:00,
2013-06-30 06:47:00,77.5,73.7,29.77,North,0,0.0,0.0,88,0.12,CLR,FEW,0.24,WeatherDisplay:10.37,2013-06-30 10:47:00,
2013-06-30 06:52:00,77.7,73.9,29.77,North,0,0.0,0.0,88,0.08,CLR,FEW,0.24,WeatherDisplay:10.37,2013-06-30 10:52:00,
2013-06-30 06:57:00,77.9,74.1,29.77,North,0,0.0,0.0,88,0.00,CLR,FEW,0.24,WeatherDisplay:10.37,2013-06-30 10:57:00,
2013-06-30 07:02:00,78.1,74.6,29.80,North,0,0.0,0.0,89,0.00,CLR,FEW,0.24,WeatherDisplay:10.37,2013-06-30 11:02:00,
2013-06-30 07:07:00,78.1,74.6,29.80,North,0,0.0,0.0,89,0.00,CLR,FEW,0.24,WeatherDisplay:10.37,2013-06-30 11:07:00,
2013-06-30 07:12:00,78.3,74.7,29.80,North,0,0.0,0.0,89,0.00,CLR,FEW,0.24,WeatherDisplay:10.37,2013-06-30 11:12:00,
2013-06-30 07:17:00,77.4,72.1,29.80,North,0,0.0,0.0,84,0.08,RA,FEW,0.31,WeatherDisplay:10.37,2013-06-30 11:17:00,
2013-06-30 07:22:00,75.9,67.4,29.80,North,0,0.0,0.0,75,0.16,RA,FEW,0.43,WeatherDisplay:10.37,2013-06-30 11:22:00,
2013-06-30 07:27:00,75.0,67.7,29.80,North,0,0.0,0.0,78,0.20,RA,FEW,0.43,WeatherDisplay:10.37,2013-06-30 11:27:00,
2013-06-30 07:32:00,74.5,67.9,29.80,North,0,0.0,0.0,80,0.20,RA,FEW,0.43,WeatherDisplay:10.37,2013-06-30 11:32:00,
2013-06-30 07:37:00,73.8,67.6,29.80,North,0,0.0,0.0,81,0.24,RA,FEW,0.47,WeatherDisplay:10.37,2013-06-30 11:37:00,
2013-06-30 07:42:00,73.8,68.3,29.80,North,0,0.0,0.0,83,0.24,RA,FEW,0.47,WeatherDisplay:10.37,2013-06-30 11:42:00,
2013-06-30 07:47:00,73.6,68.8,29.80,North,0,0.0,0.0,85,0.24,CLR,FEW,0.47,WeatherDisplay:10.37,2013-06-30 11:47:00,
2013-06-30 07:52:00,73.6,69.1,29.80,North,0,0.0,0.0,86,0.24,CLR,FEW,0.47,WeatherDisplay:10.37,2013-06-30 11:52:00,
2013-06-30 07:57:00,73.6,69.5,29.80,North,0,0.0,0.0,87,0.24,CLR,FEW,0.47,WeatherDisplay:10.37,2013-06-30 11:57:00,
2013-06-30 08:02:00,73.8,69.6,29.80,North,0,0.0,0.0,87,0.24,CLR,FEW,0.47,WeatherDisplay:10.37,2013-06-30 12:02:00,
2013-06-30 08:07:00,73.9,70.2,29.80,North,0,0.0,0.0,88,0.24,CLR,FEW,0.47,WeatherDisplay:10.37,2013-06-30 12:07:00,
2013-06-30 08:12:00,74.1,70.3,29.80,North,0,0.0,0.0,88,0.24,CLR,FEW,0.47,WeatherDisplay:10.37,2013-06-30 12:12:00,
2013-06-30 08:17:00,74.3,70.5,29.80,North,0,0.0,0.0,88,0.16,CLR,FEW,0.47,WeatherDisplay:10.37,2013-06-30 12:17:00,
2013-06-30 08:22:00,74.7,70.9,29.80,North,0,0.0,0.0,88,0.08,CLR,FEW,0.47,WeatherDisplay:10.37,2013-06-30 12:22:00,
2013-06-30 08:27:00,74.8,71.4,29.80,North,0,0.0,0.0,89,0.04,CLR,FEW,0.47,WeatherDisplay:10.37,2013-06-30 12:27:00,
2013-06-30 08:32:00,75.2,71.7,29.80,North,0,0.0,0.0,89,0.04,CLR,FEW,0.47,WeatherDisplay:10.37,2013-06-30 12:32:00,
2013-06-30 08:37:00,75.6,72.4,29.80,North,0,0.0,0.0,90,0.00,CLR,FEW,0.47,WeatherDisplay:10.37,2013-06-30 12:37:00,
2013-06-30 08:42:00,76.1,73.0,29.80,North,0,0.0,0.0,90,0.00,CLR,FEW,0.47,WeatherDisplay:10.37,2013-06-30 12:42:00,
2013-06-30 08:48:00,77.0,73.8,29.80,North,0,0.0,0.0,90,0.00,CLR,FEW,0.47,WeatherDisplay:10.37,2013-06-30 12:48:00,
2013-06-30 08:53:00,77.4,73.9,29.80,North,0,0.0,0.0,89,0.00,CLR,FEW,0.47,WeatherDisplay:10.37,2013-06-30 12:53:00,
2013-06-30 08:58:00,77.9,74.4,29.80,North,0,0.0,0.0,89,0.00,CLR,FEW,0.47,WeatherDisplay:10.37,2013-06-30 12:58:00,
2013-06-30 09:03:00,78.8,74.6,29.80,North,0,0.0,0.0,87,0.00,CLR,FEW,0.47,WeatherDisplay:10.37,2013-06-30 13:03:00,
2013-06-30 09:08:00,79.3,73.0,29.80,North,0,0.0,0.0,81,0.00,CLR,FEW,0.47,WeatherDisplay:10.37,2013-06-30 13:08:00,
2013-06-30 09:13:00,79.9,70.8,29.80,North,0,0.0,0.0,74,0.00,CLR,FEW,0.47,WeatherDisplay:10.37,2013-06-30 13:13:00,
2013-06-30 09:18:00,79.9,69.2,29.80,North,0,0.0,0.0,70,0.00,CLR,FEW,0.47,WeatherDisplay:10.37,2013-06-30 13:18:00,
2013-06-30 09:23:00,79.9,68.8,29.80,North,0,0.0,0.0,69,0.00,CLR,FEW,0.47,WeatherDisplay:10.37,2013-06-30 13:23:00,
2013-06-30 09:28:00,79.5,68.9,29.80,North,0,0.0,0.0,70,0.00,CLR,FEW,0.47,WeatherDisplay:10.37,2013-06-30 13:28:00,
2013-06-30 09:33:00,79.2,68.9,29.80,North,0,0.0,0.0,71,0.00,CLR,FEW,0.47,WeatherDisplay:10.37,2013-06-30 13:33:00,
2013-06-30 09:38:00,79.0,69.6,29.80,North,0,0.0,0.0,73,0.00,CLR,FEW,0.47,WeatherDisplay:10.37,2013-06-30 13:38:00,
2013-06-30 09:43:00,78.8,69.8,29.80,North,0,0.0,0.0,74,0.00,CLR,FEW,0.47,WeatherDisplay:10.37,2013-06-30 13:43:00,
2013-06-30 09:48:00,78.8,70.2,29.80,North,0,0.0,0.0,75,0.00,CLR,FEW,0.47,WeatherDisplay:10.37,2013-06-30 13:48:00,
2013-06-30 09:53:00,79.0,70.8,29.80,North,0,0.0,0.0,76,0.00,CLR,FEW,0.47,WeatherDisplay:10.37,2013-06-30 13:53:00,
2013-06-30 09:58:00,78.8,70.6,29.80,North,0,0.0,0.0,76,0.00,CLR,FEW,0.47,WeatherDisplay:10.37,2013-06-30 13:58:00,
2013-06-30 10:03:00,79.0,71.2,29.80,North,0,0.0,0.0,77,0.00,CLR,FEW,0.47,WeatherDisplay:10.37,2013-06-30 14:03:00,
2013-06-30 10:08:00,79.0,71.2,29.80,North,0,0.0,0.0,77,0.00,CLR,FEW,0.47,WeatherDisplay:10.37,2013-06-30 14:08:00,
2013-06-30 10:13:00,79.2,71.3,29.80,North,0,0.0,0.0,77,0.00,CLR,FEW,0.47,WeatherDisplay:10.37,2013-06-30 14:13:00,
2013-06-30 10:18:00,79.5,72.1,29.80,North,0,0.0,0.0,78,0.00,CLR,FEW,0.47,WeatherDisplay:10.37,2013-06-30 14:18:00,
2013-06-30 10:23:00,79.7,71.5,29.80,North,0,0.0,0.0,76,0.00,CLR,FEW,0.47,WeatherDisplay:10.37,2013-06-30 14:23:00,
2013-06-30 10:28:00,79.7,70.3,29.80,North,0,0.0,0.0,73,0.00,CLR,FEW,0.47,WeatherDisplay:10.37,2013-06-30 14:28:00,
2013-06-30 10:33:00,79.7,69.9,29.83,North,0,0.0,0.0,72,0.00,CLR,FEW,0.47,WeatherDisplay:10.37,2013-06-30 14:33:00,
2013-06-30 10:38:00,79.7,69.5,29.83,North,0,0.0,0.0,71,0.00,CLR,FEW,0.47,WeatherDisplay:10.37,2013-06-30 14:38:00,
2013-06-30 10:43:00,79.7,69.0,29.83,North,0,0.0,0.0,70,0.00,CLR,FEW,0.47,WeatherDisplay:10.37,2013-06-30 14:43:00,
2013-06-30 10:48:00,79.7,69.5,29.83,North,0,0.0,0.0,71,0.00,CLR,FEW,0.47,WeatherDisplay:10.37,2013-06-30 14:48:00,
2013-06-30 10:53:00,79.7,69.9,29.83,North,0,0.0,0.0,72,0.00,CLR,FEW,0.47,WeatherDisplay:10.37,2013-06-30 14:53:00,
2013-06-30 10:58:00,79.7,69.9,29.83,North,0,0.0,0.0,72,0.00,CLR,FEW,0.47,WeatherDisplay:10.37,2013-06-30 14:58:00,
2013-06-30 11:03:00,79.9,70.0,29.83,North,0,0.0,0.0,72,0.00,CLR,FEW,0.47,WeatherDisplay:10.37,2013-06-30 15:03:00,
2013-06-30 11:08:00,79.7,69.5,29.83,North,0,0.0,0.0,71,0.00,CLR,FEW,0.47,WeatherDisplay:10.37,2013-06-30 15:08:00,
2013-06-30 11:13:00,79.7,69.0,29.83,North,0,0.0,0.0,70,0.00,CLR,FEW,0.47,WeatherDisplay:10.37,2013-06-30 15:13:00,
2013-06-30 11:18:00,79.5,68.9,29.83,North,0,0.0,0.0,70,0.00,CLR,FEW,0.47,WeatherDisplay:10.37,2013-06-30 15:18:00,
2013-06-30 11:23:00,79.5,68.9,29.83,North,0,0.0,0.0,70,0.00,CLR,FEW,0.47,WeatherDisplay:10.37,2013-06-30 15:23:00,
2013-06-30 11:28:00,79.3,69.1,29.83,North,0,0.0,0.0,71,0.00,CLR,FEW,0.47,WeatherDisplay:10.37,2013-06-30 15:28:00,
2013-06-30 11:33:00,79.2,68.9,29.83,North,0,0.0,0.0,71,0.00,CLR,FEW,0.47,WeatherDisplay:10.37,2013-06-30 15:33:00,
2013-06-30 11:38:00,79.2,69.4,29.83,North,0,0.0,0.0,72,0.00,CLR,FEW,0.47,WeatherDisplay:10.37,2013-06-30 15:38:00,
2013-06-30 11:43:00,79.0,69.2,29.83,North,0,0.0,0.0,72,0.00,CLR,FEW,0.47,WeatherDisplay:10.37,2013-06-30 15:43:00,
2013-06-30 11:48:00,79.0,70.0,29.83,North,0,0.0,0.0,74,0.00,CLR,FEW,0.47,WeatherDisplay:10.37,2013-06-30 15:48:00,
2013-06-30 11:53:00,79.0,70.8,29.83,North,0,0.0,0.0,76,0.00,CLR,FEW,0.47,WeatherDisplay:10.37,2013-06-30 15:53:00,
2013-06-30 11:58:00,79.0,71.5,29.83,North,0,0.0,0.0,78,0.00,CLR,FEW,0.47,WeatherDisplay:10.37,2013-06-30 15:58:00,
2013-06-30 12:03:00,79.0,71.9,29.83,North,0,0.0,0.0,79,0.00,CLR,FEW,0.47,WeatherDisplay:10.37,2013-06-30 16:03:00,
2013-06-30 12:08:00,78.8,72.1,29.83,North,0,0.0,0.0,80,0.00,CLR,FEW,0.47,WeatherDisplay:10.37,2013-06-30 16:08:00,
2013-06-30 12:13:00,78.4,71.8,29.83,North,0,0.0,0.0,80,0.00,CLR,FEW,0.47,WeatherDisplay:10.37,2013-06-30 16:13:00,
2013-06-30 12:18:00,77.9,70.9,29.83,North,0,0.0,0.0,79,0.04,RA,FEW,0.51,WeatherDisplay:10.37,2013-06-30 16:18:00,
2013-06-30 12:23:00,77.7,70.7,29.83,North,0,0.0,0.0,79,0.04,RA,FEW,0.51,WeatherDisplay:10.37,2013-06-30 16:23:00,
2013-06-30 12:28:00,77.7,71.4,29.83,North,0,0.0,0.0,81,0.04,,FEW,0.51,WeatherDisplay:10.37,2013-06-30 16:28:00,
2013-06-30 12:33:00,77.9,72.3,29.83,North,0,0.0,0.0,83,0.04,CLR,FEW,0.51,WeatherDisplay:10.37,2013-06-30 16:33:00,
2013-06-30 12:38:00,77.7,72.1,29.83,North,0,0.0,0.0,83,0.04,CLR,FEW,0.51,WeatherDisplay:10.37,2013-06-30 16:38:00,
2013-06-30 12:43:00,77.4,71.8,29.83,North,0,0.0,0.0,83,0.08,RA,FEW,0.55,WeatherDisplay:10.37,2013-06-30 16:43:00,
2013-06-30 12:48:00,76.8,70.2,29.83,North,0,0.0,0.0,80,0.08,RA,FEW,0.55,WeatherDisplay:10.37,2013-06-30 16:48:00,
2013-06-30 12:53:00,76.6,70.0,29.83,North,0,0.0,0.0,80,0.08,RA,FEW,0.55,WeatherDisplay:10.37,2013-06-30 16:53:00,
2013-06-30 12:58:00,76.5,69.8,29.83,North,0,0.0,0.0,80,0.08,CLR,FEW,0.55,WeatherDisplay:10.37,2013-06-30 16:58:00,
2013-06-30 13:03:00,76.5,70.2,29.83,North,0,0.0,0.0,81,0.08,CLR,FEW,0.55,WeatherDisplay:10.37,2013-06-30 17:03:00,
2013-06-30 13:08:00,76.8,71.3,29.83,North,0,0.0,0.0,83,0.12,RA,FEW,0.59,WeatherDisplay:10.37,2013-06-30 17:08:00,
2013-06-30 13:13:00,77.2,72.3,29.83,North,0,0.0,0.0,85,0.12,RA,FEW,0.59,WeatherDisplay:10.37,2013-06-30 17:13:00,
2013-06-30 13:18:00,77.2,72.3,29.83,North,0,0.0,0.0,85,0.08,CLR,FEW,0.59,WeatherDisplay:10.37,2013-06-30 17:18:00,
2013-06-30 13:23:00,77.5,72.7,29.83,North,0,0.0,0.0,85,0.08,CLR,FEW,0.59,WeatherDisplay:10.37,2013-06-30 17:23:00,
2013-06-30 13:28:00,78.1,73.5,29.83,North,0,0.0,0.0,86,0.08,CLR,FEW,0.59,WeatherDisplay:10.37,2013-06-30 17:28:00,
2013-06-30 13:33:00,78.1,73.5,29.83,North,0,0.0,0.0,86,0.08,CLR,FEW,0.59,WeatherDisplay:10.37,2013-06-30 17:33:00,
2013-06-30 13:38:00,78.3,73.7,29.83,North,0,0.0,0.0,86,0.12,RA,FEW,0.63,WeatherDisplay:10.37,2013-06-30 17:38:00,
2013-06-30 13:43:00,78.8,74.3,29.83,North,0,0.0,0.0,86,0.12,RA,FEW,0.63,WeatherDisplay:10.37,2013-06-30 17:43:00,
2013-06-30 13:48:00,78.8,72.5,29.83,North,0,0.0,0.0,81,0.08,CLR,FEW,0.63,WeatherDisplay:10.37,2013-06-30 17:48:00,
2013-06-30 13:53:00,79.0,71.5,29.83,North,0,0.0,0.0,78,0.08,CLR,FEW,0.63,WeatherDisplay:10.37,2013-06-30 17:53:00,
2013-06-30 13:58:00,79.5,70.5,29.83,North,0,0.0,0.0,74,0.08,CLR,FEW,0.63,WeatherDisplay:10.37,2013-06-30 17:58:00,
2013-06-30 14:03:00,79.7,69.5,29.83,North,0,0.0,0.0,71,0.08,CLR,FEW,0.63,WeatherDisplay:10.37,2013-06-30 18:03:00,
2013-06-30 14:08:00,79.9,67.5,29.83,North,0,0.0,0.0,66,0.04,CLR,FEW,0.63,WeatherDisplay:10.37,2013-06-30 18:08:00,
2013-06-30 14:13:00,80.6,67.7,29.83,North,0,0.0,0.0,65,0.04,CLR,FEW,0.63,WeatherDisplay:10.37,2013-06-30 18:13:00,
2013-06-30 14:18:00,81.0,66.2,29.80,North,0,0.0,0.0,61,0.04,CLR,FEW,0.63,WeatherDisplay:10.37,2013-06-30 18:18:00,
2013-06-30 14:23:00,81.3,65.6,29.80,North,0,0.0,0.0,59,0.04,CLR,FEW,0.63,WeatherDisplay:10.37,2013-06-30 18:23:00,
2013-06-30 14:28:00,81.7,66.4,29.80,North,0,0.0,0.0,60,0.04,CLR,FEW,0.63,WeatherDisplay:10.37,2013-06-30 18:28:00,
2013-06-30 14:33:00,81.9,64.6,29.83,North,0,0.0,0.0,56,0.04,CLR,FEW,0.63,WeatherDisplay:10.37,2013-06-30 18:33:00,
2013-06-30 14:38:00,82.2,64.4,29.83,North,0,0.0,0.0,55,0.00,CLR,FEW,0.63,WeatherDisplay:10.37,2013-06-30 18:38:00,
2013-06-30 14:43:00,82.8,65.5,29.83,North,0,0.0,0.0,56,0.00,CLR,FEW,0.63,WeatherDisplay:10.37,2013-06-30 18:43:00,
2013-06-30 14:48:00,82.9,63.5,29.80,North,0,0.0,0.0,52,0.00,CLR,FEW,0.63,WeatherDisplay:10.37,2013-06-30 18:48:00,
2013-06-30 14:53:00,82.6,64.3,29.80,North,0,0.0,0.0,54,0.00,CLR,FEW,0.63,WeatherDisplay:10.37,2013-06-30 18:53:00,
2013-06-30 14:58:00,82.2,63.4,29.80,North,0,0.0,0.0,53,0.00,CLR,FEW,0.63,WeatherDisplay:10.37,2013-06-30 18:58:00,
2013-06-30 15:03:00,82.4,63.5,29.80,North,0,0.0,0.0,53,0.00,CLR,FEW,0.63,WeatherDisplay:10.37,2013-06-30 19:03:00,
2013-06-30 15:04:00,82.6,64.3,29.80,North,0,0.0,0.0,54,0.00,CLR,FEW,0.63,WeatherDisplay:10.37,2013-06-30 19:04:00,
2013-06-30 15:10:00,82.9,63.0,29.80,North,0,0.0,0.0,51,0.00,CLR,FEW,0.63,WeatherDisplay:10.37,2013-06-30 19:10:00,
2013-06-30 15:15:00,83.5,62.9,29.80,North,0,0.0,0.0,50,0.00,CLR,FEW,0.63,WeatherDisplay:10.37,2013-06-30 19:15:00,
2013-06-30 15:20:00,83.8,63.2,29.80,North,0,0.0,0.0,50,0.00,CLR,FEW,0.63,WeatherDisplay:10.37,2013-06-30 19:20:00,
2013-06-30 15:25:00,84.0,62.8,29.80,North,0,0.0,0.0,49,0.00,CLR,FEW,0.63,WeatherDisplay:10.37,2013-06-30 19:25:00,
2013-06-30 15:30:00,84.2,63.0,29.80,North,0,0.0,0.0,49,0.00,CLR,FEW,0.63,WeatherDisplay:10.37,2013-06-30 19:30:00,
2013-06-30 15:35:00,84.2,63.0,29.80,North,0,0.0,0.0,49,0.00,CLR,FEW,0.63,WeatherDisplay:10.37,2013-06-30 19:35:00,
2013-06-30 15:41:00,84.4,63.1,29.80,North,0,0.0,0.0,49,0.00,CLR,FEW,0.63,WeatherDisplay:10.37,2013-06-30 19:41:00,
2013-06-30 15:46:00,84.6,62.7,29.80,North,0,0.0,0.0,48,0.00,CLR,FEW,0.63,WeatherDisplay:10.37,2013-06-30 19:46:00,
2013-06-30 15:51:00,84.9,64.2,29.80,North,0,0.0,0.0,50,0.00,CLR,FEW,0.63,WeatherDisplay:10.37,2013-06-30 19:51:00,
2013-06-30 15:56:00,84.7,62.3,29.80,North,0,0.0,0.0,47,0.00,CLR,FEW,0.63,WeatherDisplay:10.37,2013-06-30 19:56:00,
2013-06-30 16:01:00,84.0,64.5,29.80,North,0,0.0,0.0,52,0.00,CLR,FEW,0.63,WeatherDisplay:10.37,2013-06-30 20:01:00,
2013-06-30 16:06:00,83.8,65.9,29.80,North,0,0.0,0.0,55,0.00,CLR,FEW,0.63,WeatherDisplay:10.37,2013-06-30 20:06:00,
2013-06-30 16:11:00,83.8,66.5,29.80,North,0,0.0,0.0,56,0.00,CLR,FEW,0.63,WeatherDisplay:10.37,2013-06-30 20:11:00,
2013-06-30 16:16:00,83.5,66.1,29.80,North,0,0.0,0.0,56,0.00,CLR,FEW,0.63,WeatherDisplay:10.37,2013-06-30 20:16:00,
2013-06-30 16:21:00,82.8,66.5,29.80,North,0,0.0,0.0,58,0.00,CLR,FEW,0.63,WeatherDisplay:10.37,2013-06-30 20:21:00,
2013-06-30 16:26:00,82.2,66.9,29.80,North,0,0.0,0.0,60,0.00,CLR,FEW,0.63,WeatherDisplay:10.37,2013-06-30 20:26:00,
2013-06-30 16:31:00,81.9,68.0,29.80,North,0,0.0,0.0,63,0.00,CLR,FEW,0.63,WeatherDisplay:10.37,2013-06-30 20:31:00,
2013-06-30 16:36:00,81.3,68.4,29.80,North,0,0.0,0.0,65,0.00,CLR,FEW,0.63,WeatherDisplay:10.37,2013-06-30 20:36:00,
2013-06-30 16:41:00,81.1,68.3,29.80,North,0,0.0,0.0,65,0.00,CLR,FEW,0.63,WeatherDisplay:10.37,2013-06-30 20:41:00,
2013-06-30 16:46:00,81.1,68.7,29.80,North,0,0.0,0.0,66,0.00,CLR,FEW,0.63,WeatherDisplay:10.37,2013-06-30 20:46:00,
2013-06-30 16:51:00,81.5,69.9,29.80,North,0,0.0,0.0,68,0.00,CLR,FEW,0.63,WeatherDisplay:10.37,2013-06-30 20:51:00,
2013-06-30 16:56:00,81.7,70.1,29.80,North,0,0.0,0.0,68,0.00,CLR,FEW,0.63,WeatherDisplay:10.37,2013-06-30 20:56:00,
2013-06-30 17:01:00,81.3,69.7,29.80,North,0,0.0,0.0,68,0.00,CLR,FEW,0.63,WeatherDisplay:10.37,2013-06-30 21:01:00,
2013-06-30 17:06:00,81.3,69.3,29.80,North,0,0.0,0.0,67,0.00,CLR,FEW,0.63,WeatherDisplay:10.37,2013-06-30 21:06:00,
2013-06-30 17:11:00,81.0,68.1,29.80,North,0,0.0,0.0,65,0.00,CLR,FEW,0.63,WeatherDisplay:10.37,2013-06-30 21:11:00,
2013-06-30 17:16:00,80.6,66.4,29.80,North,0,0.0,0.0,62,0.00,CLR,FEW,0.63,WeatherDisplay:10.37,2013-06-30 21:16:00,
2013-06-30 17:21:00,80.6,66.8,29.80,North,0,0.0,0.0,63,0.00,CLR,FEW,0.63,WeatherDisplay:10.37,2013-06-30 21:21:00,
2013-06-30 17:26:00,80.2,64.6,29.80,North,0,0.0,0.0,59,0.00,CLR,FEW,0.63,WeatherDisplay:10.37,2013-06-30 21:26:00,
2013-06-30 17:31:00,79.9,57.8,29.80,North,0,0.0,0.0,47,0.00,CLR,FEW,0.63,WeatherDisplay:10.37,2013-06-30 21:31:00,
2013-06-30 17:36:00,80.1,57.4,29.80,North,0,0.0,0.0,46,0.00,CLR,FEW,0.63,WeatherDisplay:10.37,2013-06-30 21:36:00,
2013-06-30 17:41:00,80.1,58.0,29.80,North,0,0.0,0.0,47,0.00,CLR,FEW,0.63,WeatherDisplay:10.37,2013-06-30 21:41:00,
2013-06-30 17:46:00,80.2,58.8,29.83,North,0,0.0,0.0,48,0.00,CLR,FEW,0.63,WeatherDisplay:10.37,2013-06-30 21:46:00,
2013-06-30 17:51:00,80.6,59.7,29.83,North,0,0.0,0.0,49,0.00,CLR,FEW,0.63,WeatherDisplay:10.37,2013-06-30 21:51:00,
2013-06-30 17:56:00,81.0,59.4,29.83,North,0,0.0,0.0,48,0.00,CLR,FEW,0.63,WeatherDisplay:10.37,2013-06-30 21:56:00,
2013-06-30 18:01:00,81.3,60.9,29.83,North,0,0.0,0.0,50,0.00,CLR,FEW,0.63,WeatherDisplay:10.37,2013-06-30 22:01:00,
2013-06-30 18:06:00,81.7,61.2,29.83,North,0,0.0,0.0,50,0.00,CLR,FEW,0.63,WeatherDisplay:10.37,2013-06-30 22:06:00,
2013-06-30 18:11:00,82.0,61.6,29.83,North,0,0.0,0.0,50,0.00,CLR,FEW,0.63,WeatherDisplay:10.37,2013-06-30 22:11:00,
2013-06-30 18:16:00,82.2,61.7,29.83,North,0,0.0,0.0,50,0.00,CLR,FEW,0.63,WeatherDisplay:10.37,2013-06-30 22:16:00,
2013-06-30 18:21:00,82.2,62.3,29.83,North,0,0.0,0.0,51,0.00,CLR,FEW,0.63,WeatherDisplay:10.37,2013-06-30 22:21:00,
2013-06-30 18:26:00,82.2,63.4,29.83,North,0,0.0,0.0,53,0.00,CLR,FEW,0.63,WeatherDisplay:10.37,2013-06-30 22:26:00,
2013-06-30 18:31:00,81.9,64.1,29.83,North,0,0.0,0.0,55,0.00,CLR,FEW,0.63,WeatherDisplay:10.37,2013-06-30 22:31:00,
2013-06-30 18:36:00,81.7,65.5,29.83,North,0,0.0,0.0,58,0.00,CLR,FEW,0.63,WeatherDisplay:10.37,2013-06-30 22:36:00,
2013-06-30 18:41:00,81.7,67.4,29.83,North,0,0.0,0.0,62,0.00,CLR,FEW,0.63,WeatherDisplay:10.37,2013-06-30 22:41:00,
2013-06-30 18:46:00,81.5,68.1,29.83,North,0,0.0,0.0,64,0.00,CLR,FEW,0.63,WeatherDisplay:10.37,2013-06-30 22:46:00,
2013-06-30 18:51:00,81.3,68.4,29.83,North,0,0.0,0.0,65,0.00,CLR,FEW,0.63,WeatherDisplay:10.37,2013-06-30 22:51:00,
2013-06-30 18:56:00,81.1,69.1,29.83,North,0,0.0,0.0,67,0.00,CLR,FEW,0.63,WeatherDisplay:10.37,2013-06-30 22:56:00,
2013-06-30 19:01:00,81.1,69.1,29.83,North,0,0.0,0.0,67,0.00,CLR,FEW,0.63,WeatherDisplay:10.37,2013-06-30 23:01:00,
2013-06-30 19:06:00,81.0,69.4,29.83,North,0,0.0,0.0,68,0.00,CLR,FEW,0.63,WeatherDisplay:10.37,2013-06-30 23:06:00,
2013-06-30 19:11:00,81.0,69.4,29.83,North,0,0.0,0.0,68,0.00,CLR,FEW,0.63,WeatherDisplay:10.37,2013-06-30 23:11:00,
2013-06-30 19:16:00,81.0,69.4,29.83,North,0,0.0,0.0,68,0.00,CLR,FEW,0.63,WeatherDisplay:10.37,2013-06-30 23:16:00,
2013-06-30 19:21:00,81.0,69.4,29.83,North,0,0.0,0.0,68,0.00,CLR,FEW,0.63,WeatherDisplay:10.37,2013-06-30 23:21:00,
2013-06-30 19:26:00,81.0,69.4,29.83,North,0,0.0,0.0,68,0.00,CLR,FEW,0.63,WeatherDisplay:10.37,2013-06-30 23:26:00,
2013-06-30 19:31:00,81.1,69.6,29.83,North,0,0.0,0.0,68,0.00,CLR,FEW,0.63,WeatherDisplay:10.37,2013-06-30 23:31:00,
2013-06-30 19:36:00,81.1,69.6,29.83,North,0,0.0,0.0,68,0.00,CLR,FEW,0.63,WeatherDisplay:10.37,2013-06-30 23:36:00,
2013-06-30 19:41:00,81.3,70.2,29.83,North,0,0.0,0.0,69,0.00,CLR,FEW,0.63,WeatherDisplay:10.37,2013-06-30 23:41:00,
2013-06-30 19:46:00,81.3,70.2,29.83,North,0,0.0,0.0,69,0.00,CLR,FEW,0.63,WeatherDisplay:10.37,2013-06-30 23:46:00,
2013-06-30 19:51:00,81.1,69.6,29.83,North,0,0.0,0.0,68,0.00,CLR,FEW,0.63,WeatherDisplay:10.37,2013-06-30 23:51:00,
2013-06-30 19:56:00,81.1,70.0,29.83,North,0,0.0,0.0,69,0.00,CLR,FEW,0.63,WeatherDisplay:10.37,2013-06-30 23:56:00,
2013-06-30 20:01:00,81.1,70.0,29.83,North,0,0.0,0.0,69,0.00,CLR,FEW,0.63,WeatherDisplay:10.37,2013-07-01 00:01:00,
2013-06-30 20:06:00,81.1,70.0,29.83,North,0,0.0,0.0,69,0.00,CLR,FEW,0.63,WeatherDisplay:10.37,2013-07-01 00:06:00,
2013-06-30 20:11:00,81.1,70.0,29.83,North,0,0.0,0.0,69,0.00,CLR,FEW,0.63,WeatherDisplay:10.37,2013-07-01 00:11:00,
2013-06-30 20:16:00,81.1,70.0,29.83,North,0,0.0,0.0,69,0.00,CLR,FEW,0.63,WeatherDisplay:10.37,2013-07-01 00:16:00,
2013-06-30 20:21:00,80.6,65.4,29.83,North,0,0.0,0.0,60,0.00,CLR,FEW,0.63,WeatherDisplay:10.37,2013-07-01 00:21:00,
2013-06-30 20:26:00,79.9,61.7,29.83,North,0,0.0,0.0,54,0.00,CLR,FEW,0.63,WeatherDisplay:10.37,2013-07-01 00:26:00,
2013-06-30 20:31:00,78.4,62.4,29.83,North,0,0.0,0.0,58,0.08,RA,FEW,0.75,WeatherDisplay:10.37,2013-07-01 00:31:00,
2013-06-30 20:36:00,76.6,63.5,29.85,North,0,0.0,0.0,64,0.12,RA,FEW,0.75,WeatherDisplay:10.37,2013-07-01 00:36:00,
2013-06-30 20:41:00,75.9,65.0,29.85,North,0,0.0,0.0,69,0.12,RA,FEW,0.75,WeatherDisplay:10.37,2013-07-01 00:41:00,
2013-06-30 20:46:00,75.6,65.5,29.85,North,0,0.0,0.0,71,0.12,CLR,FEW,0.75,WeatherDisplay:10.37,2013-07-01 00:46:00,
2013-06-30 20:51:00,75.6,67.1,29.85,North,0,0.0,0.0,75,0.12,CLR,FEW,0.75,WeatherDisplay:10.37,2013-07-01 00:51:00,
2013-06-30 20:56:00,75.6,67.5,29.85,North,0,0.0,0.0,76,0.12,CLR,FEW,0.75,WeatherDisplay:10.37,2013-07-01 00:56:00,
2013-06-30 21:01:00,75.6,67.5,29.85,North,0,0.0,0.0,76,0.12,CLR,FEW,0.75,WeatherDisplay:10.37,2013-07-01 01:01:00,
2013-06-30 21:06:00,75.6,67.1,29.85,North,0,0.0,0.0,75,0.12,CLR,FEW,0.75,WeatherDisplay:10.37,2013-07-01 01:06:00,
2013-06-30 21:11:00,75.6,67.5,29.85,North,0,0.0,0.0,76,0.12,CLR,FEW,0.75,WeatherDisplay:10.37,2013-07-01 01:11:00,
2013-06-30 21:16:00,75.6,67.5,29.85,North,0,0.0,0.0,76,0.12,CLR,FEW,0.75,WeatherDisplay:10.37,2013-07-01 01:16:00,
2013-06-30 21:21:00,75.6,67.5,29.85,North,0,0.0,0.0,76,0.12,CLR,FEW,0.75,WeatherDisplay:10.37,2013-07-01 01:21:00,
2013-06-30 21:26:00,75.2,66.7,29.85,North,0,0.0,0.0,75,0.12,CLR,FEW,0.75,WeatherDisplay:10.37,2013-07-01 01:26:00,
2013-06-30 21:31:00,75.2,66.7,29.85,North,0,0.0,0.0,75,0.04,CLR,FEW,0.75,WeatherDisplay:10.37,2013-07-01 01:31:00,
2013-06-30 21:36:00,75.0,66.9,29.85,North,0,0.0,0.0,76,0.00,CLR,FEW,0.75,WeatherDisplay:10.37,2013-07-01 01:36:00,
2013-06-30 21:41:00,75.0,67.3,29.85,North,0,0.0,0.0,77,0.00,CLR,FEW,0.75,WeatherDisplay:10.37,2013-07-01 01:41:00,
2013-06-30 21:46:00,75.0,67.3,29.85,North,0,0.0,0.0,77,0.00,CLR,FEW,0.75,WeatherDisplay:10.37,2013-07-01 01:46:00,
2013-06-30 21:51:00,74.8,67.1,29.85,North,0,0.0,0.0,77,0.00,CLR,FEW,0.75,WeatherDisplay:10.37,2013-07-01 01:51:00,
2013-06-30 21:56:00,74.8,67.9,29.85,North,0,0.0,0.0,79,0.00,CLR,FEW,0.75,WeatherDisplay:10.37,2013-07-01 01:56:00,
2013-06-30 22:01:00,74.8,68.6,29.85,North,0,0.0,0.0,81,0.00,CLR,FEW,0.75,WeatherDisplay:10.37,2013-07-01 02:01:00,
2013-06-30 22:06:00,74.7,69.5,29.85,North,0,0.0,0.0,84,0.00,CLR,FEW,0.75,WeatherDisplay:10.37,2013-07-01 02:06:00,
2013-06-30 22:11:00,74.3,69.1,29.85,North,0,0.0,0.0,84,0.04,RA,FEW,0.79,WeatherDisplay:10.37,2013-07-01 02:11:00,
2013-06-30 22:16:00,74.3,69.8,29.88,North,0,0.0,0.0,86,0.04,RA,FEW,0.79,WeatherDisplay:10.37,2013-07-01 02:16:00,
2013-06-30 22:21:00,75.0,71.2,29.88,North,0,0.0,0.0,88,0.04,CLR,FEW,0.79,WeatherDisplay:10.37,2013-07-01 02:21:00,
2013-06-30 22:26:00,75.2,71.4,29.88,North,0,0.0,0.0,88,0.04,CLR,FEW,0.79,WeatherDisplay:10.37,2013-07-01 02:26:00,
2013-06-30 22:30:00,74.8,71.0,29.88,North,0,0.0,0.0,88,0.08,RA,FEW,0.83,WeatherDisplay:10.37,2013-07-01 02:30:00,
2013-06-30 22:35:00,74.7,70.9,29.88,North,0,0.0,0.0,88,0.08,RA,FEW,0.83,WeatherDisplay:10.37,2013-07-01 02:35:00,
2013-06-30 22:40:00,74.7,70.9,29.88,North,0,0.0,0.0,88,0.08,CLR,FEW,0.83,WeatherDisplay:10.37,2013-07-01 02:40:00,
2013-06-30 22:45:00,74.5,70.7,29.88,North,0,0.0,0.0,88,0.08,CLR,FEW,0.83,WeatherDisplay:10.37,2013-07-01 02:45:00,
2013-06-30 22:50:00,74.5,70.7,29.88,North,0,0.0,0.0,88,0.08,CLR,FEW,0.83,WeatherDisplay:10.37,2013-07-01 02:50:00,
2013-06-30 22:55:00,74.5,70.7,29.88,North,0,0.0,0.0,88,0.08,CLR,FEW,0.83,WeatherDisplay:10.37,2013-07-01 02:55:00,
2013-06-30 23:00:00,74.5,70.7,29.88,North,0,0.0,0.0,88,0.08,CLR,FEW,0.83,WeatherDisplay:10.37,2013-07-01 03:00:00,
2013-06-30 23:05:00,74.7,70.9,29.85,North,0,0.0,0.0,88,0.08,CLR,FEW,0.83,WeatherDisplay:10.37,2013-07-01 03:05:00,
2013-06-30 23:10:00,74.7,70.9,29.85,North,0,0.0,0.0,88,0.04,CLR,FEW,0.83,WeatherDisplay:10.37,2013-07-01 03:10:00,
2013-06-30 23:15:00,74.7,70.9,29.85,North,0,0.0,0.0,88,0.04,CLR,FEW,0.83,WeatherDisplay:10.37,2013-07-01 03:15:00,
2013-06-30 23:20:00,74.7,70.9,29.85,North,0,0.0,0.0,88,0.04,CLR,FEW,0.83,WeatherDisplay:10.37,2013-07-01 03:20:00,
2013-06-30 23:25:00,74.7,70.9,29.85,North,0,0.0,0.0,88,0.04,CLR,FEW,0.83,WeatherDisplay:10.37,2013-07-01 03:25:00,
2013-06-30 23:30:00,74.5,70.7,29.85,North,0,0.0,0.0,88,0.00,CLR,FEW,0.83,WeatherDisplay:10.37,2013-07-01 03:30:00,
2013-06-30 23:35:00,74.5,70.7,29.85,North,0,0.0,0.0,88,0.00,CLR,FEW,0.83,WeatherDisplay:10.37,2013-07-01 03:35:00,
2013-06-30 23:40:00,74.5,71.0,29.85,North,0,0.0,0.0,89,0.00,CLR,FEW,0.83,WeatherDisplay:10.37,2013-07-01 03:40:00,
2013-06-30 23:45:00,74.5,71.0,29.85,North,0,0.0,0.0,89,0.00,CLR,FEW,0.83,WeatherDisplay:10.37,2013-07-01 03:45:00,
2013-06-30 23:50:00,75.2,72.4,29.85,North,0,0.0,0.0,91,0.00,CLR,FEW,0.83,WeatherDisplay:10.37,2013-07-01 03:50:00,
2013-06-30 23:55:00,75.7,73.2,29.85,North,0,0.0,0.0,92,0.00,CLR,FEW,0.83,WeatherDisplay:10.37,2013-07-01 03:55:00,